Time;durP1;ratioP1;P1;durP2;ratioP2;P2;SDS_P1;SDS_P2;PMS_P1;PMS_P2;Temp;Humidity;BMP_temperature;BMP_pressure;BME280_temperature;BME280_humidity;BME280_pressure;Samples;Min_cycle;Max_cycle;Signal;HPM_P1;HPM_P2
2023/12/03 00:02:25;;;;;;;20.83;4.32;;;;;;;;;;5060947;28;20331;-71
2023/12/03 00:04:53;;;;;;;13.82;3.05;;;;;;;;;;5059111;28;20682;-72
2023/12/03 00:07:20;;;;;;;14.07;3.83;;;;;;;;;;5052782;28;20203;-71
2023/12/03 00:09:48;;;;;;;19.55;3.83;;;;;;;;;;5049741;28;20265;-72
2023/12/03 00:12:14;;;;;;;20.92;3.35;;;;;;;;;;5058621;28;20300;-72
2023/12/03 00:14:40;;;;;;;15.13;3.70;;;;;;;;;;5059868;28;20677;-72
2023/12/03 00:17:08;;;;;;;9.52;3.70;;;;;;;;;;5053524;28;20672;-72
2023/12/03 00:19:34;;;;;;;15.52;2.42;;;;;;;;;;5057475;28;20253;-71
2023/12/03 00:22:01;;;;;;;11.43;3.67;;;;;;;;;;5042003;28;20685;-72
2023/12/03 00:24:27;;;;;;;17.98;3.20;;;;;;;;;;5059996;28;20198;-72
2023/12/03 00:26:55;;;;;;;13.70;3.30;;;;;;;;;;5057822;28;20257;-73
2023/12/03 00:29:21;;;;;;;15.32;3.33;;;;;;;;;;5059317;28;20660;-73
2023/12/03 00:31:48;;;;;;;9.43;3.10;;;;;;;;;;5061535;28;20277;-73
2023/12/03 00:34:14;;;;;;;15.13;3.30;;;;;;;;;;5064744;28;20304;-72
2023/12/03 00:36:41;;;;;;;22.80;4.25;;;;;;;;;;5061430;28;20264;-72
2023/12/03 00:39:07;;;;;;;15.35;3.17;;;;;;;;;;5054761;28;20207;-73
2023/12/03 00:41:34;;;;;;;15.68;3.10;;;;;;;;;;5067513;28;20225;-73
2023/12/03 00:44:02;;;;;;;13.15;2.53;;;;;;;;;;5069726;28;20198;-72
2023/12/03 00:46:28;;;;;;;14.23;3.00;;;;;;;;;;5065889;28;20198;-74
2023/12/03 00:48:55;;;;;;;28.05;3.67;;;;;;;;;;5059115;28;20209;-71
2023/12/03 00:51:21;;;;;;;17.85;3.60;;;;;;;;;;5064437;28;20194;-72
2023/12/03 00:53:48;;;;;;;14.05;3.47;;;;;;;;;;5061590;28;20257;-73
2023/12/03 00:56:14;;;;;;;18.63;3.40;;;;;;;;;;5061726;28;20683;-72
2023/12/03 00:58:41;;;;;;;27.90;3.67;;;;;;;;;;5064314;28;20343;-72
2023/12/03 01:01:08;;;;;;;10.60;3.15;;;;;;;;;;5058349;28;20242;-72
2023/12/03 01:03:35;;;;;;;8.88;2.45;;;;;;;;;;5058840;28;20267;-71
2023/12/03 01:06:01;;;;;;;18.85;3.22;;;;;;;;;;5059121;28;20356;-72
2023/12/03 01:08:28;;;;;;;13.30;3.42;;;;;;;;;;5063468;28;20202;-71
2023/12/03 01:10:54;;;;;;;21.15;3.47;;;;;;;;;;5059539;28;20222;-72
2023/12/03 01:13:21;;;;;;;17.25;2.80;;;;;;;;;;5068740;28;20633;-72
2023/12/03 01:15:48;;;;;;;15.40;3.63;;;;;;;;;;5060576;28;20681;-72
2023/12/03 01:18:16;;;;;;;15.10;3.05;;;;;;;;;;5066396;28;20309;-72
2023/12/03 01:20:43;;;;;;;11.60;3.88;;;;;;;;;;5063013;28;20202;-72
2023/12/03 01:23:09;;;;;;;16.27;3.55;;;;;;;;;;5065898;28;20711;-72
2023/12/03 01:25:36;;;;;;;16.52;3.00;;;;;;;;;;5051386;28;20230;-72
2023/12/03 01:28:02;;;;;;;18.75;3.42;;;;;;;;;;5058773;28;20765;-72
2023/12/03 01:30:29;;;;;;;16.42;4.32;;;;;;;;;;5063625;28;20233;-71
2023/12/03 01:32:55;;;;;;;9.68;2.42;;;;;;;;;;5065385;28;20786;-72
2023/12/03 01:35:23;;;;;;;13.40;2.75;;;;;;;;;;5068410;28;20202;-73
2023/12/03 01:37:49;;;;;;;15.70;4.10;;;;;;;;;;5065127;28;20716;-72
2023/12/03 01:40:16;;;;;;;9.52;2.53;;;;;;;;;;5067161;28;20234;-72
2023/12/03 01:42:42;;;;;;;19.90;3.13;;;;;;;;;;5063729;28;20249;-72
2023/12/03 01:45:09;;;;;;;17.95;3.45;;;;;;;;;;5059677;28;20202;-72
2023/12/03 01:47:35;;;;;;;16.00;3.20;;;;;;;;;;5053293;28;20238;-72
2023/12/03 01:50:06;;;;;;;12.57;3.08;;;;;;;;;;5060877;28;20688;-72
2023/12/03 01:52:34;;;;;;;17.17;3.67;;;;;;;;;;5049336;28;20203;-72
2023/12/03 01:55:01;;;;;;;15.38;2.65;;;;;;;;;;5049382;28;20234;-71
2023/12/03 01:57:27;;;;;;;20.75;3.47;;;;;;;;;;5048081;28;20261;-71
2023/12/03 01:59:54;;;;;;;14.00;3.45;;;;;;;;;;5049317;28;20199;-71
2023/12/03 02:02:20;;;;;;;20.52;3.25;;;;;;;;;;5048213;28;20276;-71
2023/12/03 02:04:47;;;;;;;10.07;2.72;;;;;;;;;;5054283;28;20275;-72
2023/12/03 02:07:13;;;;;;;22.40;3.53;;;;;;;;;;5050861;28;20203;-72
2023/12/03 02:09:41;;;;;;;18.92;3.53;;;;;;;;;;5050009;28;20272;-69
2023/12/03 02:12:08;;;;;;;21.35;4.35;;;;;;;;;;5048998;28;20231;-72
2023/12/03 02:14:34;;;;;;;12.80;3.58;;;;;;;;;;5054643;28;20230;-72
2023/12/03 02:17:01;;;;;;;14.70;2.42;;;;;;;;;;5045190;28;20199;-71
2023/12/03 02:19:27;;;;;;;16.67;3.70;;;;;;;;;;5055871;28;20235;-71
2023/12/03 02:21:54;;;;;;;15.23;3.80;;;;;;;;;;5064879;28;20291;-71
2023/12/03 02:24:21;;;;;;;12.15;2.80;;;;;;;;;;5067265;28;20676;-71
2023/12/03 02:26:48;;;;;;;10.20;2.80;;;;;;;;;;5057788;28;20635;-71
2023/12/03 02:29:14;;;;;;;23.20;3.58;;;;;;;;;;5058496;28;20276;-70
2023/12/03 02:31:41;;;;;;;12.63;3.20;;;;;;;;;;5057726;28;20281;-71
2023/12/03 02:34:09;;;;;;;13.27;4.10;;;;;;;;;;5056364;28;20206;-71
2023/12/03 02:36:35;;;;;;;25.00;2.95;;;;;;;;;;5053939;28;20256;-71
2023/12/03 02:39:02;;;;;;;25.67;6.20;;;;;;;;;;5051042;28;20203;-72
2023/12/03 02:41:29;;;;;;;13.65;3.13;;;;;;;;;;5061875;28;20331;-71
2023/12/03 02:43:56;;;;;;;8.27;2.90;;;;;;;;;;5058007;28;20206;-71
2023/12/03 02:46:22;;;;;;;12.88;3.35;;;;;;;;;;5056946;28;20249;-72
2023/12/03 02:48:49;;;;;;;19.38;3.95;;;;;;;;;;5056504;28;20252;-72
2023/12/03 02:51:15;;;;;;;18.65;3.55;;;;;;;;;;5058506;28;20207;-72
2023/12/03 02:53:43;;;;;;;12.95;2.83;;;;;;;;;;5049280;28;20203;-72
2023/12/03 02:56:11;;;;;;;17.35;3.10;;;;;;;;;;5054903;28;20713;-71
2023/12/03 02:58:39;;;;;;;14.23;3.10;;;;;;;;;;5060070;28;20259;-73
2023/12/03 03:01:06;;;;;;;9.98;2.78;;;;;;;;;;5041911;28;20215;-72
2023/12/03 03:03:33;;;;;;;19.52;3.47;;;;;;;;;;5024374;28;20673;-75
2023/12/03 03:05:59;;;;;;;18.67;3.15;;;;;;;;;;5046032;28;20626;-79
2023/12/03 03:08:25;;;;;;;33.58;12.20;;;;;;;;;;5036640;28;20281;-78
2023/12/03 03:10:52;;;;;;;28.70;9.45;;;;;;;;;;5013260;28;20238;-82
2023/12/03 03:13:19;;;;;;;27.35;9.45;;;;;;;;;;5031501;28;20300;-79
2023/12/03 03:15:47;;;;;;;18.50;5.03;;;;;;;;;;5044909;28;20264;-79
2023/12/03 03:18:13;;;;;;;14.70;4.15;;;;;;;;;;5039678;28;20199;-81
2023/12/03 03:20:40;;;;;;;18.33;4.55;;;;;;;;;;5043245;28;20257;-78
2023/12/03 03:23:07;;;;;;;23.52;4.72;;;;;;;;;;5043738;28;20234;-79
2023/12/03 03:25:33;;;;;;;11.02;4.40;;;;;;;;;;5036165;28;20741;-79
2023/12/03 03:28:00;;;;;;;22.65;4.32;;;;;;;;;;5042343;28;20269;-78
2023/12/03 03:30:27;;;;;;;20.52;4.60;;;;;;;;;;5044465;28;20265;-81
2023/12/03 03:32:55;;;;;;;14.52;3.28;;;;;;;;;;5042583;28;20219;-80
2023/12/03 03:35:22;;;;;;;19.20;5.30;;;;;;;;;;5046758;28;20982;-81
2023/12/03 03:37:48;;;;;;;21.10;4.65;;;;;;;;;;5012443;28;20258;-79
2023/12/03 03:40:14;;;;;;;15.18;3.00;;;;;;;;;;5014994;28;20231;-76
2023/12/03 03:42:41;;;;;;;15.15;3.08;;;;;;;;;;5029687;28;20230;-77
2023/12/03 03:45:08;;;;;;;12.77;3.15;;;;;;;;;;5040079;28;20260;-77
2023/12/03 03:47:35;;;;;;;19.23;3.72;;;;;;;;;;5041165;28;20246;-77
2023/12/03 03:50:04;;;;;;;14.73;2.67;;;;;;;;;;5030489;28;20563;-75
2023/12/03 03:52:31;;;;;;;16.67;3.15;;;;;;;;;;5043339;28;20231;-75
2023/12/03 03:54:57;;;;;;;10.68;2.88;;;;;;;;;;5040202;28;20196;-77
2023/12/03 03:57:24;;;;;;;12.55;3.10;;;;;;;;;;5047139;28;20249;-77
2023/12/03 03:59:51;;;;;;;15.10;3.90;;;;;;;;;;5051215;28;20211;-78
2023/12/03 04:02:17;;;;;;;16.42;4.18;;;;;;;;;;5051444;28;20226;-76
2023/12/03 04:04:44;;;;;;;12.15;2.83;;;;;;;;;;5049680;28;20225;-77
2023/12/03 04:07:12;;;;;;;15.13;3.35;;;;;;;;;;5048078;28;20212;-76
2023/12/03 04:09:38;;;;;;;9.52;2.38;;;;;;;;;;5061377;28;20285;-77
2023/12/03 04:12:05;;;;;;;14.68;3.53;;;;;;;;;;5050901;28;20199;-77
2023/12/03 04:14:31;;;;;;;12.55;2.90;;;;;;;;;;5059011;28;20195;-78
2023/12/03 04:16:58;;;;;;;12.63;3.17;;;;;;;;;;5059297;28;20295;-78
2023/12/03 04:19:24;;;;;;;15.57;3.53;;;;;;;;;;5057250;28;20687;-75
2023/12/03 04:21:51;;;;;;;8.65;3.08;;;;;;;;;;5051066;28;20272;-74
2023/12/03 04:24:18;;;;;;;12.73;3.42;;;;;;;;;;5047926;28;20635;-76
2023/12/03 04:26:45;;;;;;;8.80;3.10;;;;;;;;;;5043828;28;20264;-74
2023/12/03 04:29:12;;;;;;;10.52;3.60;;;;;;;;;;5059088;28;20261;-75
2023/12/03 04:31:39;;;;;;;14.50;2.97;;;;;;;;;;5059713;28;20272;-76
2023/12/03 04:34:05;;;;;;;15.52;2.95;;;;;;;;;;5051563;28;20304;-76
2023/12/03 04:36:31;;;;;;;10.98;2.75;;;;;;;;;;5058173;28;20203;-75
2023/12/03 04:38:58;;;;;;;14.13;3.30;;;;;;;;;;5055816;28;20203;-78
2023/12/03 04:41:33;;;;;;;8.50;2.47;;;;;;;;;;5059633;28;20257;-78
2023/12/03 04:44:00;;;;;;;14.88;3.58;;;;;;;;;;5051279;28;20227;-77
2023/12/03 04:46:26;;;;;;;10.65;2.50;;;;;;;;;;5057719;28;20203;-78
2023/12/03 04:48:53;;;;;;;5.47;2.35;;;;;;;;;;5061567;28;20198;-75
2023/12/03 04:51:19;;;;;;;11.55;2.25;;;;;;;;;;5047052;28;20196;-77
2023/12/03 04:53:46;;;;;;;10.93;2.90;;;;;;;;;;5048272;28;20336;-77
2023/12/03 04:56:12;;;;;;;12.88;2.95;;;;;;;;;;5045310;28;20195;-78
2023/12/03 04:58:41;;;;;;;19.55;2.65;;;;;;;;;;5051275;28;20596;-76
2023/12/03 05:01:11;;;;;;;12.70;2.40;;;;;;;;;;5056578;28;20818;-77
2023/12/03 05:03:37;;;;;;;15.13;3.13;;;;;;;;;;5054996;28;20330;-77
2023/12/03 05:06:04;;;;;;;7.80;2.80;;;;;;;;;;5032819;28;20207;-76
2023/12/03 05:08:30;;;;;;;26.17;3.67;;;;;;;;;;5049786;28;20195;-77
2023/12/03 05:10:58;;;;;;;13.02;2.63;;;;;;;;;;5057789;28;20203;-77
2023/12/03 05:13:24;;;;;;;12.80;2.33;;;;;;;;;;5051624;28;20203;-78
2023/12/03 05:15:52;;;;;;;9.25;2.53;;;;;;;;;;5051050;28;20260;-75
2023/12/03 05:18:18;;;;;;;10.25;2.40;;;;;;;;;;5051599;28;20576;-77
2023/12/03 05:20:45;;;;;;;12.32;2.28;;;;;;;;;;5050928;28;20734;-77
2023/12/03 05:23:12;;;;;;;11.00;3.15;;;;;;;;;;5050203;28;20234;-78
2023/12/03 05:25:38;;;;;;;14.82;4.13;;;;;;;;;;5049383;28;20199;-78
2023/12/03 05:28:05;;;;;;;13.50;2.88;;;;;;;;;;5051414;28;20195;-78
2023/12/03 05:30:31;;;;;;;7.15;2.42;;;;;;;;;;5057371;28;20195;-78
2023/12/03 05:32:59;;;;;;;5.97;2.50;;;;;;;;;;5056365;28;20215;-78
2023/12/03 05:35:26;;;;;;;15.18;2.67;;;;;;;;;;5050817;28;20641;-79
2023/12/03 05:37:52;;;;;;;17.80;3.20;;;;;;;;;;5046243;28;20265;-78
2023/12/03 05:40:19;;;;;;;8.23;2.90;;;;;;;;;;5055124;28;20215;-77
2023/12/03 05:42:46;;;;;;;10.18;2.70;;;;;;;23.26;0.00;169498.88;5046693;28;20227;-77
2023/12/03 05:45:13;;;;;;;9.23;2.97;;;;;;;;;;5050995;28;20692;-77
2023/12/03 05:47:40;;;;;;;9.15;3.38;;;;;;;;;;5059891;28;20207;-78
2023/12/03 05:50:08;;;;;;;12.25;2.90;;;;;;;;;;5053214;28;20268;-78
2023/12/03 05:52:35;;;;;;;8.95;2.53;;;;;;;;;;5050124;28;20206;-79
2023/12/03 05:55:01;;;;;;;10.30;2.85;;;;;;;;;;5047749;28;20203;-78
2023/12/03 05:57:28;;;;;;;10.70;2.45;;;;;;;;;;5050652;28;20195;-77
2023/12/03 05:59:54;;;;;;;14.57;3.10;;;;;;;;;;5050604;28;20206;-79
2023/12/03 06:02:21;;;;;;;10.55;2.83;;;;;;;;;;5031710;28;20583;-77
2023/12/03 06:04:48;;;;;;;10.45;2.90;;;;;;;;;;5049300;28;20260;-77
2023/12/03 06:07:15;;;;;;;12.43;2.95;;;;;;;;;;5053608;28;20252;-77
2023/12/03 06:09:42;;;;;;;11.23;3.05;;;;;;;;;;5037806;28;20268;-77
2023/12/03 06:12:08;;;;;;;10.13;2.83;;;;;;;;;;5051951;28;20255;-78
2023/12/03 06:14:35;;;;;;;12.15;2.83;;;;;;;;;;5057420;28;20260;-78
2023/12/03 06:17:02;;;;;;;16.92;3.67;;;;;;;;;;5050333;28;20264;-79
2023/12/03 06:19:28;;;;;;;14.55;3.90;;;;;;;;;;5051058;28;20210;-78
2023/12/03 06:21:55;;;;;;;8.07;3.17;;;;;;;;;;5053315;28;20231;-79
2023/12/03 06:24:24;;;;;;;9.07;3.25;;;;;;;;;;5051819;28;20601;-78
2023/12/03 06:26:51;;;;;;;15.35;5.28;;;;;;;;;;5054073;28;20195;-77
2023/12/03 06:29:17;;;;;;;15.63;3.42;;;;;;;;;;5054212;28;20226;-77
2023/12/03 06:31:44;;;;;;;16.58;4.78;;;;;;;-142.91;0.00;100169.13;5055571;28;20223;-77
2023/12/03 06:34:12;;;;;;;7.60;3.30;;;;;;;;;;5049779;28;20627;-75
2023/12/03 06:36:38;;;;;;;20.25;4.10;;;;;;;;;;5049743;28;20564;-75
2023/12/03 06:39:04;;;;;;;14.20;3.63;;;;;;;;;;5049915;28;20293;-78
2023/12/03 06:41:32;;;;;;;10.95;4.05;;;;;;;;;;5050629;28;20252;-78
2023/12/03 06:43:59;;;;;;;11.15;3.60;;;;;;;;;;5050094;28;20262;-77
2023/12/03 06:46:25;;;;;;;11.73;4.00;;;;;;;;;;5051227;28;20198;-77
2023/12/03 06:48:52;;;;;;;8.27;2.90;;;;;;;;;;5053488;28;20203;-78
2023/12/03 06:51:19;;;;;;;19.50;4.40;;;;;;;;;;5053947;28;20256;-74
2023/12/03 06:53:45;;;;;;;16.13;4.72;;;;;;;;;;5051662;28;20660;-77
2023/12/03 06:56:12;;;;;;;9.35;4.10;;;;;;;;;;5054137;28;20742;-76
2023/12/03 06:58:39;;;;;;;9.93;4.10;;;;;;;;;;5053698;28;20203;-75
2023/12/03 07:01:06;;;;;;;12.70;3.88;;;;;;;;;;5053085;28;20234;-79
2023/12/03 07:03:33;;;;;;;10.32;3.25;;;;;;;;;;5053409;28;20226;-75
2023/12/03 07:06:00;;;;;;;12.30;3.20;;;;;;;;;;5053911;28;20252;-76
2023/12/03 07:08:26;;;;;;;17.38;4.03;;;;;;;;;;5049474;28;20230;-79
2023/12/03 07:10:53;;;;;;;11.23;3.13;;;;;;;;;;5035952;28;20286;-77
2023/12/03 07:13:20;;;;;;;8.75;3.28;;;;;;;;;;5060991;28;20264;-78
2023/12/03 07:16:05;;;;;;;13.43;3.10;;;;;;;;;;5060550;28;20676;-78
2023/12/03 07:18:44;;;;;;;9.57;2.47;;;;;;;;;;5053619;28;20710;-77
2023/12/03 07:21:11;;;;;;;11.70;3.25;;;;;;;;;;5053490;28;20202;-78
2023/12/03 07:23:37;;;;;;;14.57;3.08;;;;;;;;;;5053179;28;20230;-78
2023/12/03 07:26:09;;;;;;;11.45;3.33;;;;;;;;;;5049512;28;20203;-78
2023/12/03 07:31:18;;;;;;;10.13;3.40;;;;;;;;;;5063002;28;20651;-76
2023/12/03 07:33:55;;;;;;;8.63;3.83;;;;;;;;;;5050989;28;20191;-77
2023/12/03 07:36:23;;;;;;;9.52;2.95;;;;;;;;;;5054108;28;20204;-77
2023/12/03 07:38:49;;;;;;;13.23;3.97;;;;;;;;;;5059338;28;20207;-78
2023/12/03 07:41:16;;;;;;;9.25;2.60;;;;;;;;;;5053378;28;20668;-78
2023/12/03 07:43:42;;;;;;;4.63;2.78;;;;;;;;;;5048519;28;20222;-78
2023/12/03 07:46:10;;;;;;;9.77;3.40;;;;;;;;;;5052941;28;20238;-77
2023/12/03 07:48:38;;;;;;;7.50;3.50;;;;;;;;;;5052201;28;20199;-76
2023/12/03 07:51:09;;;;;;;6.03;4.03;;;;;;;;;;5052458;28;20280;-78
2023/12/03 07:53:36;;;;;;;10.52;4.43;;;;;;;;;;5052620;28;20249;-76
2023/12/03 07:56:03;;;;;;;7.53;3.95;;;;;;;;;;5058233;28;20254;-78
2023/12/03 07:58:30;;;;;;;11.57;5.13;;;;;;;;;;5050723;28;20207;-77
2023/12/03 08:00:58;;;;;;;7.85;5.45;;;;;;;;;;5050863;28;20218;-77
2023/12/03 08:03:24;;;;;;;6.55;4.70;;;;;;;;;;5050443;28;20214;-79
2023/12/03 08:05:52;;;;;;;9.30;5.43;;;;;;;;;;5051170;28;20256;-77
2023/12/03 08:08:18;;;;;;;7.18;5.15;;;;;;;;;;5056327;28;20194;-77
2023/12/03 08:10:45;;;;;;;11.00;5.80;;;;;;;;;;5048040;28;20195;-77
2023/12/03 08:13:11;;;;;;;7.15;5.55;;;;;;;;;;5056804;28;20203;-78
2023/12/03 08:15:39;;;;;;;11.15;5.80;;;;;;;;;;5051770;28;20199;-78
2023/12/03 08:18:05;;;;;;;12.27;6.13;;;;;;;;;;5061710;28;20260;-78
2023/12/03 08:20:32;;;;;;;8.02;6.50;;;;;;;;;;5059300;28;20207;-78
2023/12/03 08:23:02;;;;;;;9.65;6.05;;;;;;;;;;5058336;28;20734;-77
2023/12/03 08:25:30;;;;;;;9.88;5.60;;;;;;;;;;5059247;28;20199;-77
2023/12/03 08:27:58;;;;;;;14.38;6.45;;;;;;;;;;5066894;28;20206;-79
2023/12/03 08:30:25;;;;;;;8.02;6.63;;;;;;;;;;5061239;28;20718;-80
2023/12/03 08:32:52;;;;;;;8.73;6.53;;;;;;;;;;5063991;28;20279;-77
2023/12/03 08:35:21;;;;;;;8.77;7.47;;;;;;;;;;5058987;28;20202;-78
2023/12/03 08:37:48;;;;;;;9.73;6.78;;;;;;;-142.91;0.00;100169.13;5064196;28;20210;-78
2023/12/03 08:40:19;;;;;;;11.43;7.07;;;;;;;;;;5064480;28;20572;-79
2023/12/03 08:42:46;;;;;;;8.27;6.88;;;;;;;;;;5060314;28;20202;-79
2023/12/03 08:45:14;;;;;;;9.13;6.55;;;;;;;;;;5057448;28;20223;-79
2023/12/03 08:47:41;;;;;;;12.10;7.57;;;;;;;;;;5058316;28;20219;-77
2023/12/03 08:50:08;;;;;;;7.50;6.65;;;;;;;;;;5055210;28;20207;-79
2023/12/03 08:52:36;;;;;;;9.80;7.60;;;;;;;;;;5061888;28;20203;-79
2023/12/03 08:55:04;;;;;;;10.27;7.03;;;;;;;;;;5064557;28;20675;-80
2023/12/03 08:57:32;;;;;;;8.02;7.22;;;;;;;;;;5061429;28;20199;-77
2023/12/03 08:59:58;;;;;;;9.38;8.48;;;;;;;;;;5061940;28;20325;-79
2023/12/03 09:02:24;;;;;;;10.45;7.85;;;;;;;;;;5061146;28;20195;-77
2023/12/03 09:04:51;;;;;;;11.25;8.07;;;;;;;-142.91;0.00;100169.13;5061532;28;20305;-77
2023/12/03 09:07:18;;;;;;;8.73;7.68;;;;;;;;;;5063918;28;20287;-78
2023/12/03 09:09:45;;;;;;;10.32;7.90;;;;;;;;;;5060701;28;20708;-79
2023/12/03 09:12:12;;;;;;;7.43;6.82;;;;;;;;;;5062067;28;20203;-77
2023/12/03 09:14:40;;;;;;;9.48;7.63;;;;;;;;;;5064669;28;20205;-79
2023/12/03 09:17:06;;;;;;;10.70;7.55;;;;;;;;;;5063666;28;20302;-78
2023/12/03 09:22:17;;;;;;;17.52;11.10;;;;;;;;;;5034574;28;20315;-78
2023/12/03 09:24:46;;;;;;;13.93;10.98;;;;;;;;;;5053450;28;20219;-77
2023/12/03 09:27:34;;;;;;;11.18;8.70;;;;;;;-142.91;0.00;100169.13;5046090;28;20207;-77
2023/12/03 09:30:04;;;;;;;17.52;10.95;;;;;;;;;;5048776;28;20211;-80
2023/12/03 09:32:30;;;;;;;11.57;8.95;;;;;;;;;;5049417;28;20222;-78
2023/12/03 09:34:57;;;;;;;10.77;8.65;;;;;;;;;;5053579;28;20198;-79
2023/12/03 09:37:23;;;;;;;15.07;10.90;;;;;;;;;;5049709;28;20203;-79
2023/12/03 09:39:50;;;;;;;15.20;8.95;;;;;;;;;;5056913;28;20230;-79
2023/12/03 09:42:19;;;;;;;13.27;9.52;;;;;;;-142.91;0.00;100169.13;5058050;28;20640;-79
2023/12/03 09:44:49;;;;;;;8.60;7.80;;;;;;;;;;5052744;28;20261;-79
2023/12/03 09:47:17;;;;;;;12.38;9.07;;;;;;;;;;5053172;28;20203;-78
2023/12/03 09:49:47;;;;;;;33.40;18.90;;;;;;;;;;5050092;28;20260;-79
2023/12/03 09:52:15;;;;;;;13.90;9.32;;;;;;;;;;5050909;28;20680;-79
2023/12/03 09:54:41;;;;;;;10.77;8.80;;;;;;;;;;5054696;28;20548;-78
2023/12/03 09:57:08;;;;;;;12.25;9.30;;;;;;;;;;5043290;28;20260;-77
2023/12/03 09:59:35;;;;;;;8.93;7.97;;;;;;;;;;5054409;28;20199;-80
2023/12/03 10:02:03;;;;;;;10.25;8.68;;;;;;;;;;5048174;28;20205;-78
2023/12/03 10:04:31;;;;;;;12.05;9.80;;;;;;;;;;5046710;28;20250;-82
2023/12/03 10:06:59;;;;;;;8.60;7.70;;;;;;;;;;5048353;28;20257;-79
2023/12/03 10:09:27;;;;;;;9.82;8.32;;;;;;;;;;5051027;28;20668;-79
2023/12/03 10:11:54;;;;;;;9.95;8.57;;;;;;;;;;5050718;28;20199;-80
2023/12/03 10:14:21;;;;;;;11.10;8.10;;;;;;;;;;5057175;28;20194;-77
2023/12/03 10:16:48;;;;;;;10.15;8.25;;;;;;;;;;5049078;28;20207;-78
2023/12/03 10:19:21;;;;;;;13.32;8.52;;;;;;;;;;5057829;28;20207;-78
2023/12/03 10:21:50;;;;;;;10.85;8.95;;;;;;;;;;5057510;28;20218;-78
2023/12/03 10:24:16;;;;;;;9.27;8.10;;;;;;;;;;5055344;28;20226;-77
2023/12/03 10:26:49;;;;;;;8.90;8.02;;;;;;;;;;5052901;28;20253;-78
2023/12/03 10:29:19;;;;;;;12.00;8.40;;;;;;;;;;5063087;28;20203;-78
2023/12/03 10:31:45;;;;;;;11.55;8.50;;;;;;;;;;5054779;28;20250;-80
2023/12/03 10:34:12;;;;;;;11.38;8.23;;;;;;;;;;5053736;28;20261;-74
2023/12/03 10:36:38;;;;;;;9.32;8.32;;;;;;;;;;5053706;28;20206;-78
2023/12/03 10:39:08;;;;;;;10.27;7.80;;;;;;;;;;5051618;28;20242;-79
2023/12/03 10:41:35;;;;;;;16.27;9.93;;;;;;;;;;5051256;28;20203;-79
2023/12/03 10:44:01;;;;;;;10.68;8.55;;;;;;;;;;5051439;28;20273;-78
2023/12/03 10:46:28;;;;;;;13.75;9.13;;;;;;;;;;5046039;28;20209;-72
2023/12/03 10:48:55;;;;;;;9.00;8.00;;;;;;;;;;5015107;28;20214;-78
2023/12/03 10:51:23;;;;;;;15.40;7.32;;;;;;;;;;5020511;28;20215;-77
2023/12/03 10:53:50;;;;;;;9.02;7.85;;;;;;;;;;5035096;28;20501;-77
2023/12/03 10:56:18;;;;;;;9.27;7.10;;;;;;;;;;5044081;28;20198;-77
2023/12/03 10:58:45;;;;;;;9.82;7.10;;;;;;;;;;5039945;28;20199;-77
2023/12/03 11:01:15;;;;;;;13.95;8.63;;;;;;;;;;5035537;28;20260;-77
2023/12/03 11:03:49;;;;;;;10.93;8.23;;;;;;;;;;5043087;28;20214;-78
2023/12/03 11:06:16;;;;;;;13.27;8.68;;;;;;;;;;5043093;28;20283;-77
2023/12/03 11:08:43;;;;;;;10.00;8.00;;;;;;;;;;5020922;28;20202;-78
2023/12/03 11:11:11;;;;;;;12.32;7.82;;;;;;;;;;5032616;28;20211;-79
2023/12/03 11:13:39;;;;;;;10.57;8.80;;;;;;;;;;5041488;28;20625;-77
2023/12/03 11:16:08;;;;;;;9.27;7.78;;;;;;;-142.91;0.00;100169.13;5035621;28;20203;-79
2023/12/03 11:18:36;;;;;;;10.45;7.65;;;;;;;;;;5022044;28;20665;-76
2023/12/03 11:21:09;;;;;;;11.55;8.25;;;;;;;;;;5040440;28;20689;-75
2023/12/03 11:23:40;;;;;;;9.25;7.15;;;;;;;;;;5043110;28;20665;-76
2023/12/03 11:26:10;;;;;;;12.98;7.55;;;;;;;;;;5044196;28;20755;-76
2023/12/03 11:28:36;;;;;;;9.88;7.40;;;;;;;;;;5041364;28;20697;-78
2023/12/03 11:31:04;;;;;;;9.73;7.40;;;;;;;-142.91;0.00;100169.13;5038850;28;20231;-80
2023/12/03 11:33:31;;;;;;;7.25;6.55;;;;;;;-142.91;0.00;100169.13;5045105;28;20612;-78
2023/12/03 11:35:59;;;;;;;13.07;8.18;;;;;;;;;;5045057;28;20596;-80
2023/12/03 11:38:32;;;;;;;13.38;8.13;;;;;;;;;;5047510;28;20256;-77
2023/12/03 11:40:59;;;;;;;6.10;5.50;;;;;;;;;;5033994;28;20573;-79
2023/12/03 11:43:26;;;;;;;8.40;6.75;;;;;;;;;;5041097;28;20203;-80
2023/12/03 11:45:53;;;;;;;8.18;6.53;;;;;;;;;;5042237;28;20719;-78
2023/12/03 11:48:21;;;;;;;8.15;7.07;;;;;;;;;;5043781;28;20199;-81
2023/12/03 11:50:48;;;;;;;6.57;5.93;;;;;;;;;;5047252;28;20199;-82
2023/12/03 11:53:15;;;;;;;7.60;6.90;;;;;;;;;;5047971;28;20199;-81
2023/12/03 11:55:45;;;;;;;8.15;7.03;;;;;;;;;;5048262;28;20199;-79
2023/12/03 11:58:12;;;;;;;8.88;6.40;;;;;;;;;;5048577;28;20203;-80
2023/12/03 12:00:40;;;;;;;7.45;6.70;;;;;;;;;;5047276;28;20733;-82
2023/12/03 12:03:10;;;;;;;8.43;6.35;;;;;;;;;;5047241;28;20302;-80
2023/12/03 12:05:44;;;;;;;8.63;6.22;;;;;;;;;;5049631;28;20218;-81
2023/12/03 12:08:10;;;;;;;9.52;6.75;;;;;;;;;;5049369;28;20613;-81
2023/12/03 12:10:39;;;;;;;9.32;6.47;;;;;;;;;;5042867;28;20215;-80
2023/12/03 12:13:06;;;;;;;7.63;6.38;;;;;;;;;;5048375;28;20210;-81
2023/12/03 12:15:33;;;;;;;7.43;5.82;;;;;;;;;;5027183;28;20196;-78
2023/12/03 12:17:59;;;;;;;7.07;6.43;;;;;;;;;;5045833;28;20219;-79
2023/12/03 12:20:27;;;;;;;6.97;6.07;;;;;;;-142.91;0.00;100169.13;5049076;28;20199;-78
2023/12/03 12:22:56;;;;;;;7.07;6.40;;;;;;;;;;5048555;28;20631;-79
2023/12/03 12:25:23;;;;;;;19.45;11.18;;;;;;;;;;5051498;28;20234;-79
2023/12/03 12:27:51;;;;;;;10.85;6.93;;;;;;;;;;5049120;28;20636;-83
2023/12/03 12:30:18;;;;;;;10.07;7.97;;;;;;;;;;5045395;28;20199;-79
2023/12/03 12:32:46;;;;;;;15.88;8.05;;;;;;;;;;5048472;28;20598;-80
2023/12/03 12:35:13;;;;;;;8.02;7.10;;;;;;;;;;5047970;28;20191;-79
2023/12/03 12:37:40;;;;;;;7.57;6.80;;;;;;;;;;5048337;28;20207;-79
2023/12/03 12:40:09;;;;;;;10.55;7.95;;;;;;;;;;5049380;28;20203;-79
2023/12/03 12:42:40;;;;;;;9.15;7.18;;;;;;;;;;5049683;28;20199;-81
2023/12/03 12:45:08;;;;;;;10.98;7.40;;;;;;;;;;5021061;28;20272;-76
2023/12/03 12:47:34;;;;;;;12.50;8.60;;;;;;;;;;5012246;28;20588;-76
2023/12/03 12:50:01;;;;;;;10.73;8.13;;;;;;;;;;5028894;28;20210;-78
2023/12/03 12:52:27;;;;;;;10.68;8.73;;;;;;;;;;5022044;28;20203;-76
2023/12/03 12:54:54;;;;;;;9.77;8.23;;;;;;;;;;5037313;28;20207;-76
2023/12/03 12:57:22;;;;;;;9.98;8.45;;;;;;;;;;5041530;28;20199;-77
2023/12/03 12:59:51;;;;;;;13.20;9.48;;;;;;;;;;5039601;28;20261;-75
2023/12/03 13:02:18;;;;;;;11.75;8.65;;;;;;;;;;5041771;28;20203;-79
2023/12/03 13:04:44;;;;;;;14.40;9.48;;;;;;;;;;5039568;28;20656;-77
2023/12/03 13:07:10;;;;;;;11.13;9.55;;;;;;;;;;5039328;28;20203;-80
2023/12/03 13:09:37;;;;;;;15.25;9.85;;;;;;;;;;5037256;28;20226;-78
2023/12/03 13:12:03;;;;;;;14.05;10.13;;;;;;;;;;5039292;28;20229;-77
2023/12/03 13:14:33;;;;;;;23.73;12.93;;;;;;;;;;5040550;28;20252;-81
2023/12/03 13:16:59;;;;;;;15.07;9.50;;;;;;;;;;5043000;28;20333;-81
2023/12/03 13:19:26;;;;;;;9.30;8.40;;;;;;;;;;5040195;28;20215;-78
2023/12/03 13:21:53;;;;;;;13.40;9.13;;;;;;;;;;5040261;28;20261;-80
2023/12/03 13:24:20;;;;;;;13.75;8.10;;;;;;;;;;5040608;28;20211;-79
2023/12/03 13:26:46;;;;;;;11.43;9.50;;;;;;;;;;5041223;28;20226;-82
2023/12/03 13:29:13;;;;;;;10.43;9.50;;;;;;;;;;5041563;28;20269;-81
2023/12/03 13:31:41;;;;;;;17.30;11.55;;;;;;;;;;5043296;28;20292;-76
2023/12/03 13:34:09;;;;;;;16.02;10.57;;;;;;;;;;5041797;28;20762;-76
2023/12/03 13:36:38;;;;;;;12.98;10.00;;;;;;;;;;5045350;28;20199;-79
2023/12/03 13:39:07;;;;;;;12.50;9.35;;;;;;;;;;5044702;28;20218;-80
2023/12/03 13:41:34;;;;;;;12.32;8.55;;;;;;;;;;5040122;28;20206;-78
2023/12/03 13:44:00;;;;;;;12.00;9.35;;;;;;;;;;5044099;28;20226;-77
2023/12/03 13:46:28;;;;;;;10.93;8.23;;;;;;;;;;5046567;28;20222;-77
2023/12/03 13:48:55;;;;;;;11.20;8.45;;;;;;;;;;5046414;28;20199;-78
2023/12/03 13:51:22;;;;;;;12.35;8.75;;;;;;;;;;5046294;28;20269;-80
2023/12/03 13:53:49;;;;;;;15.80;9.70;;;;;;;;;;5041728;28;20195;-79
2023/12/03 13:56:16;;;;;;;14.43;9.90;;;;;;;;;;5039000;28;20226;-77
2023/12/03 13:58:44;;;;;;;11.85;9.63;;;;;;;;;;5037164;28;20727;-77
2023/12/03 14:01:10;;;;;;;8.18;7.28;;;;;;;;;;5038422;28;21603;-78
2023/12/03 14:03:37;;;;;;;9.90;8.23;;;;;;;;;;5037478;28;20216;-76
2023/12/03 14:06:05;;;;;;;10.27;7.60;;;;;;;;;;5035566;28;20234;-77
2023/12/03 14:08:32;;;;;;;9.27;8.15;;;;;;;;;;5038933;28;20203;-77
2023/12/03 14:11:11;;;;;;;16.75;8.35;;;;;;;;;;5040477;28;20211;-79
2023/12/03 14:16:18;;;;;;;14.10;9.60;;;;;;;;;;5036942;28;20213;-75
2023/12/03 14:18:46;;;;;;;12.85;8.63;;;;;;;;;;5037828;28;20261;-76
2023/12/03 14:21:14;;;;;;;12.45;8.32;;;;;;;;;;5040284;28;20204;-74
2023/12/03 14:23:43;;;;;;;12.45;8.70;;;;;;;;;;5042067;28;20612;-75
2023/12/03 14:26:19;;;;;;;10.20;8.98;;;;;;;;;;5036169;28;20223;-75
2023/12/03 14:28:46;;;;;;;11.18;8.38;;;;;;;;;;5039327;28;20206;-76
2023/12/03 14:31:13;;;;;;;10.05;8.98;;;;;;;;;;5040102;28;20236;-78
2023/12/03 14:33:39;;;;;;;10.00;7.40;;;;;;;;;;5038889;28;20199;-76
2023/12/03 14:36:06;;;;;;;8.75;7.85;;;;;;;;;;5036335;28;20198;-78